首页
METAR-TAF:

METAR-TAF

机场 :

布莱斯, 加利福尼亚州, 美国

纬度: 33-37-09N, 经度: 114-43-01W, 海拔: 121米

当前天气观测

该预报发布于47分钟前的23:52 UTC
风速16节,风向南转西南,有时为26节阵风
温度 46°C
湿度 6%
气压 1001 hPa
能見度: 16.1公里
散云层高于12000英尺

METAR: KBLH 152352Z AUTO 21016G26KT 10SM SCT120 46/M01 A2956 RMK AO2 PK WND 21026/2322 SLP001 T04611011 10467 20394 56022

时间: 17:39 (00:39 UTC)

预报

该预报发布于1小时和11分钟前的23:28 UTC
预报有效从16日的 00点(UTC)到 16日的 24点(UTC)
风速14节,风向南转西南,有时为22节阵风
能見度: 10公里
天空无云
从 16日的 0700点(UTC)
风速7节,风向南转西南
能見度: 10公里
天空无云
从 16日的 1900点(UTC)
风速14节,风向南转西南,有时为24节阵风
能見度: 10公里
天空无云

TAF: KBLH 152328Z 1600/1624 20014G22KT P6SM SKC FM160700 20007KT P6SM SKC FM161900 21014G24KT P6SM SKC

超过4000个机场的气象观测和天气预报(METAR&TAF报告)。

可查询的气象台以黄色和红色小点在地图上表示。

将鼠标移到小点上方,可查看气象台名称。

然后点击查看天气观测和预报。

如需切换地图:点击带黑十字的绿色按钮放大地图;点击带横线的绿色按钮缩小地图;或者点击绿色箭头查看邻近地区的地图。


METAR-TAF: